Bookmark and Share
Track history (hours):
 

Wan Hai 273

Last reported at 2014-Apr-17 01:33 UTC. Time now 2014-Apr-17 18:38 UTC.
Position N 21°44' E 113°49'.

Length 172 m; draft 9.4 m.

Type: Cargo ship. MMSI: 566406000.

NotesDate/timePositionNaut miles runAvg speedWind from/ knotsBaromVisibWave heightAir tempDewpointWater temp
2014-Apr-17 01:33N 21°44' E 113°49'1919.0
2014-Apr-17 00:33N 21°58' E 114°01'1715.3
2014-Apr-16 23:28N 22°13' E 114°09'1011.1
2014-Apr-16 22:33N 22°21' E 114°01'9 9.5
2014-Apr-16 21:33N 22°26' E 113°53'1 1.3
2014-Apr-16 20:30N 22°27' E 113°54'0 0.0
2014-Apr-16 19:30N 22°27' E 113°54'0 0.0
2014-Apr-16 18:30N 22°27' E 113°54'0 0.0
2014-Apr-16 17:30N 22°27' E 113°54'0 0.0
2014-Apr-16 16:30N 22°27' E 113°54'0 0.0
2014-Apr-16 15:30N 22°27' E 113°54'0 0.0
2014-Apr-16 14:30N 22°27' E 113°54'0 0.0
2014-Apr-16 13:30N 22°27' E 113°54'0 0.0
2014-Apr-16 12:30N 22°27' E 113°54'0 0.0
2014-Apr-16 11:30N 22°27' E 113°54'0 0.0
2014-Apr-16 10:24N 22°27' E 113°54'0 0.0
2014-Apr-16 09:30N 22°27' E 113°54'0 0.0
2014-Apr-16 08:33N 22°27' E 113°54'6 5.7
2014-Apr-16 07:33N 22°22' E 113°55'10 8.8
2014-Apr-16 06:23N 22°19' E 114°06'2 2.0
2014-Apr-16 05:33N 22°19' E 114°08'0 0.0
2014-Apr-16 04:33N 22°20' E 114°08'0 0.0
2014-Apr-16 03:27N 22°19' E 114°08'0 0.0
2014-Apr-16 02:27N 22°19' E 114°08'0 0.0
2014-Apr-16 01:33N 22°19' E 114°08'0 0.0
2014-Apr-16 00:33N 22°19' E 114°08'0 0.0
2014-Apr-15 23:21N 22°19' E 114°08'0 0.0
2014-Apr-15 22:33N 22°19' E 114°08'0 0.0
2014-Apr-15 21:21N 22°19' E 114°08'0 0.0
2014-Apr-15 20:33N 22°19' E 114°08'0 0.0
2014-Apr-15 19:33N 22°20' E 114°08'0 0.0
2014-Apr-15 18:33N 22°20' E 114°08'0 0.0
2014-Apr-15 17:27N 22°19' E 114°08'0 0.0
2014-Apr-15 16:33N 22°19' E 114°08'0 0.0
2014-Apr-15 15:33N 22°19' E 114°08'16013.4
2014-Apr-15 03:34N 22°51' E 116°58'1917.7
2014-Apr-15 02:30N 23°00' E 117°15'10016.6
2014-Apr-14 20:31N 24°01' E 118°42'3417.0
2014-Apr-14 18:32N 24°25' E 119°07'37918.9
2014-Apr-13 22:28N 29°47' E 122°52'4018.9
2014-Apr-13 20:22N 30°26' E 123°01'7515.3
2014-Apr-13 15:28N 31°15' E 121°55'1313.2
2014-Apr-13 14:31N 31°20' E 121°41'2 2.0
2014-Apr-13 13:28N 31°20' E 121°39'0 0.0
2014-Apr-13 12:16N 31°20' E 121°39'0 0.0
2014-Apr-13 11:10N 31°20' E 121°39'0 0.0
2014-Apr-13 10:28N 31°20' E 121°39'0 0.0
2014-Apr-13 09:16N 31°20' E 121°39'0 0.0
2014-Apr-13 07:10N 31°20' E 121°39'0 0.0
2014-Apr-13 06:16N 31°20' E 121°39'0 0.1
2014-Apr-13 05:22N 31°20' E 121°39'0 0.0
2014-Apr-13 04:16N 31°20' E 121°39'0 0.1
2014-Apr-13 03:16N 31°20' E 121°39'0 0.0
2014-Apr-13 02:28N 31°20' E 121°39'0 0.0
2014-Apr-13 01:22N 31°20' E 121°39'4 5.3
2014-Apr-13 00:33N 31°19' E 121°44'46 1.2
2014-Apr-11 10:30N 31°13' E 122°37'0 0.0
2014-Apr-11 09:30N 31°13' E 122°37'0 0.0
2014-Apr-11 08:18N 31°13' E 122°37'0 0.2
2014-Apr-11 07:30N 31°13' E 122°37'0 0.0
2014-Apr-11 05:06N 31°13' E 122°37'2 0.7
2014-Apr-11 02:33N 31°13' E 122°39'1413.8
2014-Apr-11 01:33N 31°13' E 122°55'1916.5
2014-Apr-11 00:24N 31°20' E 123°16'3217.2
2014-Apr-10 22:33N 31°31' E 123°51'1817.6
2014-Apr-10 21:33N 31°38' E 124°10'1918.0
2014-Apr-10 20:31N 31°45' E 124°30'1918.0
2014-Apr-10 19:28N 31°52' E 124°51'1617.9
2014-Apr-10 18:33N 31°58' E 125°09'1717.2
2014-Apr-10 17:33N 32°07' E 125°26'1917.4
2014-Apr-10 16:29N 32°19' E 125°43'3417.2
2014-Apr-10 14:32N 32°40' E 126°14'2117.2
2014-Apr-10 13:20N 32°53' E 126°33'18317.0
2014-Apr-10 02:33N 35°04' E 129°07'3 2.9
2014-Apr-10 01:31N 35°06' E 129°04'0 0.0
2014-Apr-10 00:28N 35°06' E 129°04'0 0.0
2014-Apr-09 23:28N 35°06' E 129°04'0 0.0
2014-Apr-09 22:28N 35°06' E 129°04'0 0.0
2014-Apr-09 21:28N 35°06' E 129°04'0 0.0
2014-Apr-09 20:28N 35°06' E 129°04'0 0.0
2014-Apr-09 19:28N 35°06' E 129°04'0 0.0
2014-Apr-09 18:28N 35°06' E 129°04'5 5.2
2014-Apr-09 17:33N 35°04' E 129°09'86 2.8
2014-Apr-08 11:06N 34°03' E 130°23'917.1
2014-Apr-08 10:33N 34°03' E 130°34'21611.4
2014-Apr-07 15:33N 34°06' E 134°55'1515.3
2014-Apr-07 14:33N 34°21' E 135°00'1716.7
2014-Apr-07 13:33N 34°33' E 135°14'8 7.4
2014-Apr-07 12:28N 34°41' E 135°15'0 0.0
2014-Apr-07 11:28N 34°41' E 135°15'0 0.0
2014-Apr-07 10:28N 34°41' E 135°15'0 0.0
2014-Apr-07 09:28N 34°41' E 135°15'3 3.1
2014-Apr-07 08:33N 34°38' E 135°17'7 7.1
2014-Apr-07 07:31N 34°39' E 135°26'0 0.0
2014-Apr-07 06:25N 34°39' E 135°26'0 0.0
2014-Apr-07 05:19N 34°39' E 135°26'0 0.0
2014-Apr-07 04:25N 34°39' E 135°26'0 0.0
2014-Apr-07 03:31N 34°39' E 135°26'0 0.0
2014-Apr-07 02:31N 34°39' E 135°26'  

Dump ship's entire track history

sailing weather and tide predictions

Wan Hai 273 — 9V7586 — position and weather